Dexter, Michigan
Current Conditions -  °F | °C
As of 1:53 PM on Tuesday 27 Jan 2015 (Local Time) from KARB Reporting Station
Clear Clear  
Wind Chill: -8°   Ceiling: Unl
Heat Index: -3°   Visibility: 10mi
Dew Point: -12°   Wind: 9mph
Humidity: 51%   Direction: 360°N
Pressure: 30.1"   Gusts: NA
Location:  42.34°N, 83.89°W
Report Text: KARB 271853Z 36008KT 10SM CLR M03/M12 A3010 RMK AO2 SLP207 T10331122
Loading
Personal Weather Stations






























Interactive Weather Map New forecast layout! Learn more

10-Day Weather Forecast

Advertisements
Track Severe Weather on mobile